SBDN

Details ICAO SBDN (PPB)
Name Presidente Prudente
Region Brazil
Timezone America/Sao_Paulo (UTC-3.0)
Plans Departing 45
Arriving 32
Stats Elevation 1,476 ft / 450 m (AMSL)
Location -22.175042° -51.424639°
Runways 1
Magnetic Variation 19.226° W
Sunrise 2018-05-22 09:54:48 UTC / 2018-05-22 06:54:48 Local
Sunset 2018-05-22 20:52:49 UTC / 2018-05-22 17:52:49 Local
Advertisement - Login to hide

Runways

ID Width Length Bearing (true) Bearing (mag) Surface Threshold Offset Overrun Length
12 115 ft / 35 m 6,929 ft / 2,112 m 98.36° 117.59° Asphalt 0 ft / 0 m 0 ft / 0 m
30 115 ft / 35 m 6,929 ft / 2,112 m 278.35° 297.58° Asphalt 0 ft / 0 m 0 ft / 0 m

Map

Weather


0- 5 10 15 20 25 30 35+ Temperature / ° C

Clouds and Precipitation
Forecast for 2018-05-22 00:00 UTC. Updated 5 hours ago

Ground ~20,000 ft ~40,000 ft Winds

METAR

SBDN 220400Z 00000KT CAVOK 11/07 Q1019

TAF

TAF SBDN 212230Z 2200/2212 19004KT CAVOK TX17/2200Z TN12/2209Z BECMG 2202/2204 12003KT RMK PER

Frequencies

Tower 118.45 MHz PRUDENTE RDO
Approach 118.45 MHz PRUDENTE APP
Warning: Do not use this data for real-world aviation or navigation. No guarantee of current accuracy is given.